createdAt,value
2022-10-25T00:01:22.319Z,1.80
2022-10-25T00:03:49.001Z,0.60
2022-10-25T00:06:15.526Z,2.93
2022-10-25T00:08:42.083Z,2.00
2022-10-25T00:11:08.559Z,0.90
2022-10-25T00:13:35.109Z,1.13
2022-10-25T00:16:01.590Z,4.27
2022-10-25T00:18:28.112Z,6.17
2022-10-25T00:20:54.699Z,2.87
2022-10-25T00:23:21.188Z,1.93
2022-10-25T00:25:47.715Z,1.03
2022-10-25T00:28:14.317Z,3.47
2022-10-25T00:30:40.806Z,2.90
2022-10-25T00:33:07.312Z,3.03
2022-10-25T00:35:33.828Z,2.20
2022-10-25T00:38:00.353Z,3.07
2022-10-25T00:40:26.837Z,2.23
2022-10-25T00:42:53.394Z,2.33
2022-10-25T00:45:19.878Z,1.60
2022-10-25T00:47:46.647Z,3.40
2022-10-25T00:50:13.430Z,2.27
2022-10-25T00:52:39.906Z,2.90
2022-10-25T00:55:06.426Z,4.00
2022-10-25T00:57:32.973Z,2.47
2022-10-25T00:59:59.527Z,4.00
2022-10-25T01:02:26.096Z,3.30
2022-10-25T01:04:52.634Z,5.23
2022-10-25T01:07:19.164Z,2.00
2022-10-25T01:09:45.625Z,2.53
2022-10-25T01:12:12.106Z,1.50
2022-10-25T01:14:38.599Z,2.77
2022-10-25T01:17:05.130Z,4.33
2022-10-25T01:19:31.640Z,12.33
2022-10-25T01:21:58.156Z,5.70
2022-10-25T01:24:24.708Z,6.63
2022-10-25T01:26:51.220Z,7.83
2022-10-25T01:29:17.697Z,2.37
2022-10-25T01:31:44.196Z,4.67
2022-10-25T01:34:10.708Z,3.50
2022-10-25T01:36:37.263Z,4.20
2022-10-25T01:39:03.784Z,7.50
2022-10-25T01:41:30.300Z,1.87
2022-10-25T01:43:56.840Z,1.60
2022-10-25T01:46:23.378Z,27.73
2022-10-25T01:48:49.904Z,4.07
2022-10-25T01:51:16.451Z,1.73
2022-10-25T01:53:42.917Z,1.60
2022-10-25T01:56:09.428Z,2.70
2022-10-25T01:58:35.992Z,1.97
2022-10-25T02:01:02.548Z,8.87
2022-10-25T02:03:29.072Z,2.83
2022-10-25T02:05:55.565Z,4.17
2022-10-25T02:08:22.040Z,8.10
2022-10-25T02:10:48.554Z,25.17
2022-10-25T02:13:15.053Z,12.90
2022-10-25T02:15:41.570Z,14.47
2022-10-25T02:18:08.098Z,5.70
2022-10-25T02:20:35.659Z,3.60
2022-10-25T02:23:02.180Z,1.17
2022-10-25T02:25:28.706Z,1.33
2022-10-25T02:27:55.253Z,3.70
2022-10-25T02:30:21.816Z,3.73
2022-10-25T02:32:48.339Z,3.13
2022-10-25T02:35:14.853Z,5.03
2022-10-25T02:37:41.408Z,3.87
2022-10-25T02:40:07.938Z,4.17
2022-10-25T02:42:34.456Z,4.73
2022-10-25T02:45:00.965Z,6.30
2022-10-25T02:47:27.486Z,2.17
2022-10-25T02:49:54.002Z,1.90
2022-10-25T02:52:20.555Z,3.87
2022-10-25T02:54:47.028Z,3.77
2022-10-25T02:57:13.543Z,3.47
2022-10-25T02:59:40.057Z,3.87
2022-10-25T03:02:06.538Z,3.57
2022-10-25T03:04:33.040Z,3.10
2022-10-25T03:06:59.597Z,3.53
2022-10-25T03:09:26.086Z,4.33
2022-10-25T03:11:52.608Z,3.53
2022-10-25T03:14:19.237Z,2.00
2022-10-25T03:16:45.795Z,5.73
2022-10-25T03:19:12.344Z,7.03
2022-10-25T03:21:41.287Z,7.63
2022-10-25T03:24:08.728Z,3.27
2022-10-25T03:26:35.338Z,2.77
2022-10-25T03:29:01.874Z,2.20
2022-10-25T03:31:28.368Z,4.20
2022-10-25T03:33:55.027Z,4.50
2022-10-25T03:36:21.533Z,11.43
2022-10-25T03:38:48.084Z,7.67
2022-10-25T03:41:14.575Z,5.23
2022-10-25T03:43:41.152Z,4.23
2022-10-25T03:46:07.705Z,5.57
2022-10-25T03:48:34.183Z,7.20
2022-10-25T03:51:00.716Z,4.43
2022-10-25T03:53:27.224Z,5.10
2022-10-25T03:55:53.744Z,4.43
2022-10-25T03:58:20.279Z,3.60
2022-10-25T04:00:46.787Z,6.67
2022-10-25T04:03:13.350Z,4.17
2022-10-25T04:05:39.912Z,3.33
2022-10-25T04:08:06.485Z,2.60
2022-10-25T04:10:33.006Z,3.70
2022-10-25T04:12:59.593Z,3.50
2022-10-25T04:15:26.189Z,3.83
2022-10-25T04:17:54.282Z,3.17
2022-10-25T04:20:21.247Z,4.67
2022-10-25T04:22:48.024Z,5.20
2022-10-25T04:25:14.570Z,4.70
2022-10-25T04:27:41.048Z,2.77
2022-10-25T04:30:07.550Z,3.50
2022-10-25T04:32:34.061Z,5.77
2022-10-25T04:35:00.599Z,6.00
2022-10-25T04:37:27.125Z,10.37
2022-10-25T04:39:53.655Z,6.27
2022-10-25T04:42:20.184Z,4.37
2022-10-25T04:44:46.656Z,79.07
2022-10-25T04:47:13.156Z,12.37
2022-10-25T04:49:39.665Z,23.73
2022-10-25T04:52:06.173Z,30.23
2022-10-25T04:54:32.716Z,10.67
2022-10-25T04:56:59.230Z,17.33
2022-10-25T04:59:25.754Z,20.77
2022-10-25T05:04:23.726Z,13.67
2022-10-25T05:06:50.218Z,4.90
2022-10-25T05:09:16.775Z,4.03
2022-10-25T05:11:43.304Z,3.27
2022-10-25T05:14:09.816Z,5.17
2022-10-25T05:16:36.377Z,6.57
2022-10-25T05:19:02.894Z,2.60
2022-10-25T05:21:29.410Z,5.10
2022-10-25T05:24:00.565Z,3.23
2022-10-25T05:26:28.834Z,1.80
2022-10-25T05:28:55.316Z,4.03
2022-10-25T05:31:21.873Z,4.60
2022-10-25T05:33:48.347Z,2.33
2022-10-25T05:36:14.885Z,4.03
2022-10-25T05:38:41.396Z,6.33
2022-10-25T05:41:07.911Z,4.80
2022-10-25T05:43:34.448Z,3.50
2022-10-25T05:46:00.953Z,5.57
2022-10-25T05:48:27.432Z,8.10
2022-10-25T05:50:59.378Z,22.80
2022-10-25T05:53:35.078Z,27.33
2022-10-25T05:56:01.558Z,10.47
2022-10-25T05:58:28.036Z,105.57
2022-10-25T06:00:54.583Z,67.17
2022-10-25T06:03:21.084Z,39.67
2022-10-25T06:05:47.592Z,27.07
2022-10-25T06:08:14.127Z,38.17
2022-10-25T06:10:40.719Z,29.30
2022-10-25T06:13:07.253Z,21.63
2022-10-25T06:15:33.810Z,22.77
2022-10-25T06:18:00.330Z,31.00
2022-10-25T06:20:26.869Z,29.10
2022-10-25T06:22:53.429Z,15.67
2022-10-25T06:25:19.899Z,27.63
2022-10-25T06:27:46.449Z,25.97
2022-10-25T06:30:12.973Z,26.40
2022-10-25T06:32:39.494Z,14.03
2022-10-25T06:35:06.017Z,11.10
2022-10-25T06:37:32.529Z,7.53
2022-10-25T06:39:59.054Z,10.77
2022-10-25T06:42:25.593Z,12.07
2022-10-25T06:44:52.066Z,8.33
2022-10-25T06:47:18.572Z,6.90
2022-10-25T06:49:45.121Z,8.80
2022-10-25T06:52:11.674Z,15.17
2022-10-25T06:54:38.210Z,25.93
2022-10-25T06:57:04.751Z,33.67
2022-10-25T06:59:31.316Z,13.13
2022-10-25T07:01:57.894Z,38.90
2022-10-25T07:04:24.485Z,15.07
2022-10-25T07:06:52.982Z,24.57
2022-10-25T07:09:21.812Z,16.87
2022-10-25T07:11:48.303Z,7.60
2022-10-25T07:14:14.866Z,8.23
2022-10-25T07:16:41.336Z,7.20
2022-10-25T07:19:07.846Z,5.67
2022-10-25T07:21:34.377Z,6.57
2022-10-25T07:24:00.897Z,4.60
2022-10-25T07:26:27.420Z,4.33
2022-10-25T07:28:53.988Z,5.37
2022-10-25T07:31:20.506Z,6.23
2022-10-25T07:33:47.038Z,4.60
2022-10-25T07:36:13.590Z,3.87
2022-10-25T07:38:40.109Z,3.00
2022-10-25T07:41:06.620Z,4.67
2022-10-25T07:43:33.182Z,4.53
2022-10-25T07:45:59.693Z,6.70
2022-10-25T07:48:26.217Z,5.83
2022-10-25T07:50:52.717Z,5.70
2022-10-25T07:53:19.241Z,5.60
2022-10-25T07:55:45.785Z,6.63
2022-10-25T07:58:12.293Z,6.93
2022-10-25T08:00:38.982Z,4.67
2022-10-25T08:03:05.583Z,6.83
2022-10-25T08:05:32.127Z,4.87
2022-10-25T08:07:58.636Z,3.83
2022-10-25T08:10:25.193Z,2.20
2022-10-25T08:12:51.700Z,3.87
2022-10-25T08:15:18.205Z,3.97
2022-10-25T08:17:45.098Z,2.27
2022-10-25T08:20:11.873Z,1.80
2022-10-25T08:22:38.405Z,0.90
2022-10-25T08:25:05.266Z,2.17
2022-10-25T08:27:31.960Z,1.03
2022-10-25T08:29:58.447Z,2.10
2022-10-25T08:32:24.980Z,1.60
2022-10-25T08:34:51.506Z,2.50
2022-10-25T08:37:18.034Z,1.63
2022-10-25T08:39:44.585Z,0.80
2022-10-25T08:42:11.107Z,1.47
2022-10-25T08:44:38.692Z,0.87
2022-10-25T08:47:05.248Z,2.23
2022-10-25T08:49:31.746Z,1.63
2022-10-25T08:51:58.290Z,1.53
2022-10-25T08:54:24.818Z,1.23
2022-10-25T08:57:10.533Z,1.60
2022-10-25T08:59:38.025Z,1.87
2022-10-25T09:02:04.691Z,2.20
2022-10-25T09:04:31.267Z,1.10
2022-10-25T09:06:58.033Z,0.73
2022-10-25T09:09:24.561Z,2.47
2022-10-25T09:11:51.021Z,2.00
2022-10-25T09:14:17.581Z,1.70
2022-10-25T09:16:44.074Z,1.33
2022-10-25T09:19:10.585Z,2.17
2022-10-25T09:21:37.089Z,1.03
2022-10-25T09:24:03.602Z,0.60
2022-10-25T09:26:30.153Z,2.00
2022-10-25T09:28:56.672Z,1.53
2022-10-25T09:31:23.210Z,2.13
2022-10-25T09:33:49.774Z,1.37
2022-10-25T09:36:16.310Z,3.70
2022-10-25T09:38:42.790Z,1.97
2022-10-25T09:41:09.347Z,1.67
2022-10-25T09:43:35.875Z,1.87
2022-10-25T09:46:02.421Z,2.07
2022-10-25T09:48:28.960Z,2.77
2022-10-25T09:50:55.482Z,1.03
2022-10-25T09:53:24.108Z,2.50
2022-10-25T09:55:50.953Z,1.40
2022-10-25T09:58:17.477Z,2.03
2022-10-25T10:00:44.339Z,2.77
2022-10-25T10:03:10.839Z,2.63
2022-10-25T10:05:37.389Z,2.93
2022-10-25T10:08:03.917Z,2.87
2022-10-25T10:10:30.403Z,2.40
2022-10-25T10:12:56.887Z,2.27
2022-10-25T10:15:23.388Z,1.33
2022-10-25T10:17:50.081Z,1.10
2022-10-25T10:20:16.797Z,1.20
2022-10-25T10:22:43.351Z,2.40
2022-10-25T10:25:09.858Z,2.83
2022-10-25T10:27:36.397Z,1.40
2022-10-25T10:30:02.942Z,1.90
2022-10-25T10:32:29.535Z,2.47
2022-10-25T10:34:56.045Z,2.73
2022-10-25T10:37:22.607Z,1.20
2022-10-25T10:39:49.116Z,1.20
2022-10-25T10:42:15.643Z,1.73
2022-10-25T10:44:42.163Z,1.77
2022-10-25T10:47:08.724Z,1.53
2022-10-25T10:49:35.297Z,2.43
2022-10-25T10:52:01.865Z,5.50
2022-10-25T10:54:28.346Z,1.57
2022-10-25T10:56:54.869Z,1.67
2022-10-25T10:59:21.437Z,3.23
2022-10-25T11:01:48.036Z,1.13
2022-10-25T11:04:14.606Z,2.40
2022-10-25T11:06:41.114Z,2.43
2022-10-25T11:09:07.659Z,2.07
2022-10-25T11:11:34.145Z,0.43
2022-10-25T11:14:00.692Z,2.00
2022-10-25T11:16:28.062Z,2.07
2022-10-25T11:18:54.763Z,0.80
2022-10-25T11:21:21.338Z,0.50
2022-10-25T11:23:47.865Z,1.23
2022-10-25T11:26:14.392Z,2.13
2022-10-25T11:28:40.950Z,2.40
2022-10-25T11:31:07.465Z,1.10
2022-10-25T11:33:33.959Z,2.23
2022-10-25T11:36:01.503Z,2.87
2022-10-25T11:38:28.020Z,1.27
2022-10-25T11:40:54.492Z,0.93
2022-10-25T11:43:21.010Z,1.43
2022-10-25T11:45:47.501Z,3.37
2022-10-25T11:48:14.030Z,1.63
2022-10-25T11:50:40.583Z,2.77
2022-10-25T11:53:07.115Z,3.23
2022-10-25T11:55:33.637Z,2.53
2022-10-25T11:58:03.174Z,3.07
2022-10-25T12:00:33.530Z,2.83
2022-10-25T12:03:00.099Z,0.80
2022-10-25T12:05:26.692Z,1.60
2022-10-25T12:07:53.218Z,2.80
2022-10-25T12:10:19.766Z,1.67
2022-10-25T12:12:46.729Z,2.13
2022-10-25T12:15:13.461Z,1.60
2022-10-25T12:17:39.982Z,2.03
2022-10-25T12:20:06.502Z,1.53
2022-10-25T12:22:33.010Z,2.80
2022-10-25T12:24:59.494Z,1.27
2022-10-25T12:27:26.004Z,3.27
2022-10-25T12:29:52.562Z,1.07
2022-10-25T12:32:19.093Z,2.50
2022-10-25T12:34:45.567Z,1.10
2022-10-25T12:37:12.123Z,1.43
2022-10-25T12:39:38.613Z,3.47
2022-10-25T12:42:05.102Z,2.43
2022-10-25T12:44:31.726Z,1.73
2022-10-25T12:46:58.255Z,1.90
2022-10-25T12:49:24.782Z,2.30
2022-10-25T12:51:51.340Z,1.70
2022-10-25T12:54:17.904Z,1.63
2022-10-25T12:56:44.431Z,2.63
2022-10-25T12:59:10.959Z,1.47
2022-10-25T13:01:37.477Z,2.57
2022-10-25T13:04:04.038Z,1.40
2022-10-25T13:06:30.572Z,1.13
2022-10-25T13:08:57.099Z,1.07
2022-10-25T13:11:23.769Z,1.87
2022-10-25T13:13:50.289Z,2.03
2022-10-25T13:16:16.764Z,3.77
2022-10-25T13:18:43.308Z,4.73
2022-10-25T13:21:10.032Z,3.40
2022-10-25T13:23:36.560Z,2.63
2022-10-25T13:26:03.074Z,4.27
2022-10-25T13:28:32.763Z,2.60
2022-10-25T13:31:01.878Z,3.17
2022-10-25T13:33:28.402Z,7.13
2022-10-25T13:35:54.896Z,1.90
2022-10-25T13:38:21.407Z,2.57
2022-10-25T13:40:47.908Z,2.97
2022-10-25T13:43:14.396Z,2.53
2022-10-25T13:45:40.878Z,4.47
2022-10-25T13:48:07.442Z,1.10
2022-10-25T13:50:33.925Z,1.87
2022-10-25T13:53:02.496Z,2.43
2022-10-25T13:55:29.555Z,2.17
2022-10-25T13:57:56.236Z,2.47
2022-10-25T14:00:22.719Z,2.20
2022-10-25T14:02:49.531Z,3.33
2022-10-25T14:05:16.279Z,3.53
2022-10-25T14:07:42.763Z,3.37
2022-10-25T14:10:09.355Z,2.10
2022-10-25T14:12:35.853Z,2.07
2022-10-25T14:15:02.336Z,1.87
2022-10-25T14:17:28.914Z,1.30
2022-10-25T14:19:55.402Z,2.17
2022-10-25T14:22:21.912Z,1.47
2022-10-25T14:24:48.495Z,3.00
2022-10-25T14:27:14.984Z,2.93
2022-10-25T14:29:41.492Z,1.60
2022-10-25T14:32:08.047Z,2.40
2022-10-25T14:34:34.574Z,1.70
2022-10-25T14:37:01.144Z,3.13
2022-10-25T14:39:27.653Z,2.10
2022-10-25T14:41:54.134Z,1.30
2022-10-25T14:44:20.689Z,3.20
2022-10-25T14:46:47.179Z,1.33
2022-10-25T14:49:13.707Z,3.07
2022-10-25T14:51:40.232Z,2.80
2022-10-25T14:54:06.755Z,3.90
2022-10-25T14:56:33.401Z,2.67
2022-10-25T14:58:59.950Z,3.93
2022-10-25T15:01:26.552Z,1.97
2022-10-25T15:03:53.116Z,2.43
2022-10-25T15:06:19.672Z,2.17
2022-10-25T15:08:50.819Z,2.30
2022-10-25T15:11:18.803Z,1.37
2022-10-25T15:13:45.329Z,2.97
2022-10-25T15:16:11.860Z,1.83
2022-10-25T15:18:38.433Z,1.80
2022-10-25T15:21:04.940Z,1.43
2022-10-25T15:23:31.461Z,2.73
2022-10-25T15:25:58.002Z,1.73
2022-10-25T15:28:24.535Z,2.60
2022-10-25T15:30:51.056Z,0.97
2022-10-25T15:33:17.608Z,1.53
2022-10-25T15:35:44.090Z,1.73
2022-10-25T15:38:10.616Z,2.90
2022-10-25T15:40:37.158Z,3.67
2022-10-25T15:43:03.680Z,8.77
2022-10-25T15:45:30.226Z,30.00
2022-10-25T15:47:56.707Z,54.83
2022-10-25T15:50:23.179Z,18.43
2022-10-25T15:52:50.263Z,12.60
2022-10-25T15:55:17.031Z,10.43
2022-10-25T15:57:43.555Z,11.03
2022-10-25T16:00:10.030Z,6.20
2022-10-25T16:02:36.542Z,8.20
2022-10-25T16:05:03.098Z,6.80
2022-10-25T16:07:29.618Z,4.20
2022-10-25T16:09:56.140Z,8.30
2022-10-25T16:12:22.675Z,6.70
2022-10-25T16:14:49.287Z,20.27
2022-10-25T16:17:15.868Z,29.57
2022-10-25T16:19:42.347Z,16.10
2022-10-25T16:22:08.841Z,18.20
2022-10-25T16:24:35.331Z,13.67
2022-10-25T16:27:01.815Z,7.57
2022-10-25T16:29:28.326Z,5.83
2022-10-25T16:31:54.860Z,5.87
2022-10-25T16:34:21.372Z,4.47
2022-10-25T16:36:47.864Z,12.00
2022-10-25T16:39:14.400Z,9.17
2022-10-25T16:41:40.921Z,15.30
2022-10-25T16:44:07.477Z,20.00
2022-10-25T16:46:34.002Z,16.40
2022-10-25T16:49:02.093Z,17.83
2022-10-25T16:51:28.972Z,14.53
2022-10-25T16:53:55.449Z,16.13
2022-10-25T16:56:21.966Z,13.67
2022-10-25T16:58:48.629Z,12.13
2022-10-25T17:01:15.297Z,8.67
2022-10-25T17:03:42.301Z,17.13
2022-10-25T17:06:22.263Z,12.67
2022-10-25T17:08:55.334Z,12.70
2022-10-25T17:11:21.906Z,10.63
2022-10-25T17:13:48.408Z,14.27
2022-10-25T17:16:14.913Z,19.37
2022-10-25T17:18:41.441Z,16.10
2022-10-25T17:21:07.989Z,11.20
2022-10-25T17:23:34.506Z,9.03
2022-10-25T17:26:01.020Z,9.67
2022-10-25T17:28:27.513Z,11.20
2022-10-25T17:30:54.006Z,6.63
2022-10-25T17:33:20.539Z,6.93
2022-10-25T17:35:47.045Z,8.10
2022-10-25T17:38:13.557Z,12.40
2022-10-25T17:40:40.094Z,10.27
2022-10-25T17:43:07.825Z,7.37
2022-10-25T17:45:34.389Z,6.80
2022-10-25T17:48:00.924Z,5.93
2022-10-25T17:50:27.440Z,4.00
2022-10-25T17:52:53.929Z,5.93
2022-10-25T17:55:20.443Z,16.23
2022-10-25T17:57:47.170Z,6.20
2022-10-25T18:00:13.906Z,17.17
2022-10-25T18:02:40.456Z,5.13
2022-10-25T18:05:19.799Z,5.40
2022-10-25T18:07:47.672Z,5.23
2022-10-25T18:10:14.355Z,5.70
2022-10-25T18:12:40.873Z,8.07
2022-10-25T18:15:07.403Z,7.17
2022-10-25T18:17:33.883Z,7.00
2022-10-25T18:20:00.406Z,7.70
2022-10-25T18:22:26.964Z,8.03
2022-10-25T18:24:53.480Z,5.63
2022-10-25T18:27:20.006Z,5.00
2022-10-25T18:29:46.562Z,6.60
2022-10-25T18:32:13.087Z,5.27
2022-10-25T18:34:39.610Z,6.20
2022-10-25T18:37:06.148Z,5.47
2022-10-25T18:39:32.696Z,4.50
2022-10-25T18:41:59.213Z,4.67
2022-10-25T18:44:25.701Z,4.13
2022-10-25T18:46:52.265Z,6.07
2022-10-25T18:49:18.782Z,4.97
2022-10-25T18:51:45.333Z,4.77
2022-10-25T18:54:11.862Z,5.80
2022-10-25T18:56:38.341Z,6.40
2022-10-25T18:59:05.105Z,4.60
2022-10-25T19:01:31.794Z,5.03
2022-10-25T19:03:58.355Z,5.33
2022-10-25T19:06:24.880Z,4.60
2022-10-25T19:08:51.418Z,5.70
2022-10-25T19:11:17.962Z,4.30
2022-10-25T19:13:47.603Z,4.07
2022-10-25T19:16:17.066Z,8.67
2022-10-25T19:18:43.562Z,4.27
2022-10-25T19:21:10.110Z,4.83
2022-10-25T19:23:36.593Z,6.30
2022-10-25T19:26:03.078Z,3.23
2022-10-25T19:28:29.604Z,4.57
2022-10-25T19:30:56.126Z,4.57
2022-10-25T19:33:22.601Z,4.50
2022-10-25T19:35:49.258Z,4.70
2022-10-25T19:38:15.729Z,5.70
2022-10-25T19:40:42.217Z,3.57
2022-10-25T19:43:08.753Z,6.67
2022-10-25T19:45:35.264Z,4.60
2022-10-25T19:48:01.746Z,4.80
2022-10-25T19:50:28.255Z,5.00
2022-10-25T19:52:54.736Z,5.30
2022-10-25T19:55:21.258Z,3.13
2022-10-25T19:57:48.083Z,4.03
2022-10-25T20:00:14.812Z,9.57
2022-10-25T20:02:41.291Z,3.13
2022-10-25T20:05:07.876Z,4.57
2022-10-25T20:07:34.449Z,3.50
2022-10-25T20:10:00.960Z,4.67
2022-10-25T20:12:27.513Z,3.77
2022-10-25T20:14:54.043Z,4.33
2022-10-25T20:17:20.569Z,3.60
2022-10-25T20:19:47.133Z,2.90
2022-10-25T20:22:13.653Z,4.03
2022-10-25T20:24:40.140Z,5.00
2022-10-25T20:27:06.712Z,6.23
2022-10-25T20:29:33.221Z,4.53
2022-10-25T20:31:59.745Z,5.47
2022-10-25T20:34:26.296Z,6.70
2022-10-25T20:36:52.813Z,6.43
2022-10-25T20:39:19.334Z,3.10
2022-10-25T20:41:45.936Z,4.77
2022-10-25T20:44:12.529Z,4.87
2022-10-25T20:46:39.021Z,3.00
2022-10-25T20:49:05.545Z,3.40
2022-10-25T20:51:32.130Z,4.93
2022-10-25T20:53:58.622Z,4.47
2022-10-25T20:56:25.115Z,3.07
2022-10-25T20:58:51.653Z,2.97
2022-10-25T21:01:18.196Z,2.83
2022-10-25T21:03:44.785Z,4.77
2022-10-25T21:06:11.301Z,3.17
2022-10-25T21:08:37.828Z,4.07
2022-10-25T21:11:04.305Z,4.10
2022-10-25T21:13:30.828Z,3.03
2022-10-25T21:15:57.321Z,3.67
2022-10-25T21:18:23.847Z,3.00
2022-10-25T21:20:50.315Z,4.73
2022-10-25T21:23:16.889Z,4.83
2022-10-25T21:25:43.404Z,3.73
2022-10-25T21:28:09.905Z,6.20
2022-10-25T21:30:36.459Z,5.17
2022-10-25T21:33:02.975Z,4.53
2022-10-25T21:35:29.499Z,3.00
2022-10-25T21:37:56.119Z,3.17
2022-10-25T21:40:22.641Z,3.40
2022-10-25T21:42:49.116Z,3.97
2022-10-25T21:45:15.625Z,2.73
2022-10-25T21:47:42.136Z,3.70
2022-10-25T21:50:08.646Z,4.50
2022-10-25T21:52:35.190Z,6.43
2022-10-25T21:55:01.715Z,4.87
2022-10-25T21:57:28.185Z,4.70
2022-10-25T21:59:54.716Z,2.80
2022-10-25T22:02:21.459Z,5.40
2022-10-25T22:04:48.083Z,3.00
2022-10-25T22:07:14.591Z,4.07
2022-10-25T22:09:41.065Z,2.97
2022-10-25T22:12:07.573Z,2.70
2022-10-25T22:14:34.062Z,4.80
2022-10-25T22:17:00.545Z,3.93
2022-10-25T22:19:27.127Z,4.60
2022-10-25T22:21:53.662Z,2.40
2022-10-25T22:24:20.172Z,2.70
2022-10-25T22:26:46.898Z,2.97
2022-10-25T22:29:13.412Z,3.97
2022-10-25T22:31:39.930Z,2.37
2022-10-25T22:34:06.415Z,3.27
2022-10-25T22:36:32.978Z,1.87
2022-10-25T22:38:59.458Z,2.40
2022-10-25T22:41:25.965Z,2.40
2022-10-25T22:43:52.510Z,1.57
2022-10-25T22:46:18.984Z,2.57
2022-10-25T22:48:45.461Z,1.70
2022-10-25T22:51:12.006Z,3.20
2022-10-25T22:53:38.481Z,3.40
2022-10-25T22:56:04.989Z,2.43
2022-10-25T22:58:31.513Z,2.40
2022-10-25T23:00:58.100Z,3.90
2022-10-25T23:03:24.611Z,2.70
2022-10-25T23:05:51.105Z,4.07
2022-10-25T23:08:17.666Z,3.53
2022-10-25T23:10:44.186Z,2.37
2022-10-25T23:13:10.712Z,3.03
2022-10-25T23:15:37.354Z,2.40
2022-10-25T23:18:03.881Z,3.27
2022-10-25T23:20:30.405Z,3.97
2022-10-25T23:22:56.946Z,2.70
2022-10-25T23:25:23.465Z,2.70
2022-10-25T23:27:50.165Z,3.47
2022-10-25T23:30:16.943Z,1.40
2022-10-25T23:32:43.427Z,4.00
2022-10-25T23:35:09.953Z,2.30
2022-10-25T23:37:36.465Z,2.90
2022-10-25T23:40:02.956Z,1.33
2022-10-25T23:42:29.482Z,4.40
2022-10-25T23:44:56.036Z,2.80
2022-10-25T23:47:22.512Z,2.93
2022-10-25T23:49:49.069Z,4.00
2022-10-25T23:52:15.591Z,3.63
2022-10-25T23:54:42.105Z,3.07
2022-10-25T23:57:08.669Z,2.90
2022-10-25T23:59:35.192Z,3.53
